createdAt,value
2018-04-25T00:05:14.156Z,26.03
2018-04-25T00:07:41.709Z,25.20
2018-04-25T00:10:09.987Z,25.47
2018-04-25T00:12:37.915Z,25.20
2018-04-25T00:15:05.491Z,25.80
2018-04-25T00:17:33.122Z,25.03
2018-04-25T00:20:01.479Z,26.20
2018-04-25T00:22:29.057Z,27.13
2018-04-25T00:24:57.398Z,26.23
2018-04-25T00:27:25.007Z,25.77
2018-04-25T00:29:53.365Z,24.70
2018-04-25T00:32:20.967Z,27.37
2018-04-25T00:34:48.590Z,26.03
2018-04-25T00:37:16.177Z,25.90
2018-04-25T00:39:43.778Z,25.23
2018-04-25T00:42:11.342Z,25.03
2018-04-25T00:44:38.894Z,25.60
2018-04-25T00:47:06.494Z,26.00
2018-04-25T00:49:34.067Z,26.93
2018-04-25T00:52:01.648Z,26.10
2018-04-25T00:54:29.242Z,27.33
2018-04-25T00:56:56.803Z,26.77
2018-04-25T00:59:24.394Z,26.83
2018-04-25T01:01:51.998Z,26.13
2018-04-25T01:04:19.559Z,26.20
2018-04-25T01:06:47.143Z,26.80
2018-04-25T01:09:14.718Z,26.20
2018-04-25T01:11:42.399Z,24.90
2018-04-25T01:14:10.247Z,24.23
2018-04-25T01:16:37.799Z,24.10
2018-04-25T01:19:05.409Z,23.47
2018-04-25T01:21:33.767Z,22.60
2018-04-25T01:24:01.661Z,23.17
2018-04-25T01:26:29.277Z,23.90
2018-04-25T01:28:56.850Z,23.07
2018-04-25T01:31:31.350Z,23.57
2018-04-25T01:37:22.326Z,23.43
2018-04-25T01:42:48.959Z,24.47
2018-04-25T01:45:28.479Z,24.03
2018-04-25T01:47:58.830Z,25.33
2018-04-25T01:50:35.062Z,24.97
2018-04-25T01:53:14.670Z,24.43
2018-04-25T01:55:54.311Z,24.23
2018-04-25T01:58:33.902Z,23.47
2018-04-25T02:01:13.401Z,23.10
2018-04-25T02:03:46.832Z,22.60
2018-04-25T02:06:14.672Z,22.57
2018-04-25T02:08:42.525Z,22.17
2018-04-25T02:11:10.117Z,22.40
2018-04-25T02:13:37.811Z,22.23
2018-04-25T02:16:05.521Z,20.90
2018-04-25T02:18:35.994Z,22.67
2018-04-25T02:21:03.840Z,22.63
2018-04-25T02:23:31.496Z,23.40
2018-04-25T02:25:59.077Z,23.00
2018-04-25T02:28:26.953Z,25.00
2018-04-25T02:30:54.552Z,25.03
2018-04-25T02:33:22.148Z,26.47
2018-04-25T02:35:49.729Z,26.87
2018-04-25T02:38:17.335Z,25.67
2018-04-25T02:40:44.949Z,26.00
2018-04-25T02:43:12.556Z,26.23
2018-04-25T02:45:40.117Z,27.17
2018-04-25T02:48:07.701Z,27.63
2018-04-25T02:50:35.783Z,27.27
2018-04-25T02:53:03.384Z,27.73
2018-04-25T02:55:31.751Z,26.03
2018-04-25T02:58:00.124Z,25.63
2018-04-25T03:00:27.951Z,25.03
2018-04-25T03:02:55.751Z,25.93
2018-04-25T03:05:23.374Z,25.73
2018-04-25T03:07:50.963Z,26.37
2018-04-25T03:10:18.728Z,25.90
2018-04-25T03:12:46.344Z,27.70
2018-04-25T03:15:13.944Z,26.77
2018-04-25T03:17:41.504Z,24.97
2018-04-25T03:20:09.147Z,25.13
2018-04-25T03:22:36.763Z,25.33
2018-04-25T03:25:05.128Z,23.47
2018-04-25T03:27:32.739Z,24.87
2018-04-25T03:30:00.311Z,24.57
2018-04-25T03:32:28.461Z,24.23
2018-04-25T03:34:56.067Z,25.00
2018-04-25T03:37:23.648Z,25.87
2018-04-25T03:39:51.288Z,26.17
2018-04-25T03:42:18.972Z,25.73
2018-04-25T03:44:46.569Z,25.20
2018-04-25T03:47:15.129Z,26.57
2018-04-25T03:49:42.766Z,25.63
2018-04-25T03:52:10.393Z,27.20
2018-04-25T03:54:37.982Z,25.50
2018-04-25T03:57:05.606Z,26.83
2018-04-25T03:59:33.209Z,27.87
2018-04-25T04:02:00.803Z,27.13
2018-04-25T04:04:29.215Z,27.90
2018-04-25T04:06:56.790Z,27.47
2018-04-25T04:09:24.371Z,26.17
2018-04-25T04:11:52.012Z,23.60
2018-04-25T04:14:19.591Z,24.57
2018-04-25T04:16:47.181Z,24.37
2018-04-25T04:19:15.543Z,26.50
2018-04-25T04:21:43.137Z,25.20
2018-04-25T04:24:10.752Z,24.67
2018-04-25T04:26:38.330Z,24.40
2018-04-25T04:29:05.953Z,24.83
2018-04-25T04:31:33.824Z,23.83
2018-04-25T04:34:01.416Z,23.90
2018-04-25T04:36:30.259Z,23.40
2018-04-25T04:38:57.868Z,23.33
2018-04-25T04:41:25.480Z,21.53
2018-04-25T04:43:53.102Z,21.80
2018-04-25T04:46:21.481Z,21.77
2018-04-25T04:48:49.824Z,23.10
2018-04-25T04:51:17.399Z,22.80
2018-04-25T04:53:45.036Z,23.27
2018-04-25T04:56:12.637Z,22.80
2018-04-25T04:58:40.980Z,21.43
2018-04-25T05:01:08.583Z,21.00
2018-04-25T05:03:37.198Z,21.13
2018-04-25T05:06:04.842Z,22.33
2018-04-25T05:08:32.515Z,21.90
2018-04-25T05:11:00.046Z,20.97
2018-04-25T05:13:28.545Z,19.77
2018-04-25T05:15:56.888Z,19.83
2018-04-25T05:18:25.210Z,20.97
2018-04-25T05:20:53.091Z,22.13
2018-04-25T05:23:20.856Z,25.27
2018-04-25T05:25:48.447Z,30.07
2018-04-25T05:28:16.035Z,36.53
2018-04-25T05:30:43.643Z,36.23
2018-04-25T05:33:11.214Z,35.77
2018-04-25T05:35:39.669Z,36.40
2018-04-25T05:38:08.085Z,39.30
2018-04-25T05:40:36.635Z,36.43
2018-04-25T05:43:04.275Z,38.37
2018-04-25T05:45:31.845Z,35.37
2018-04-25T05:47:59.457Z,36.63
2018-04-25T05:50:27.879Z,33.60
2018-04-25T05:52:55.755Z,33.07
2018-04-25T05:55:23.411Z,30.97
2018-04-25T05:57:51.186Z,30.23
2018-04-25T06:00:18.770Z,29.67
2018-04-25T06:02:47.211Z,28.90
2018-04-25T06:05:14.816Z,28.87
2018-04-25T06:07:43.358Z,26.60
2018-04-25T06:10:10.930Z,26.63
2018-04-25T06:12:38.571Z,26.53
2018-04-25T06:15:07.077Z,25.27
2018-04-25T06:17:34.643Z,24.17
2018-04-25T06:20:02.231Z,25.07
2018-04-25T06:22:30.615Z,24.80
2018-04-25T06:24:58.950Z,25.07
2018-04-25T06:27:26.532Z,26.10
2018-04-25T06:29:54.180Z,23.70
2018-04-25T06:32:22.331Z,22.83
2018-04-25T06:34:49.935Z,19.03
2018-04-25T06:37:18.349Z,21.10
2018-04-25T06:39:45.933Z,19.40
2018-04-25T06:42:14.313Z,17.60
2018-04-25T06:44:41.984Z,16.70
2018-04-25T06:47:10.248Z,14.80
2018-04-25T06:49:37.843Z,11.93
2018-04-25T06:52:06.426Z,10.50
2018-04-25T06:54:34.063Z,10.80
2018-04-25T06:57:01.671Z,11.07
2018-04-25T06:59:30.144Z,11.30
2018-04-25T07:01:58.461Z,11.30
2018-04-25T07:04:26.052Z,10.60
2018-04-25T07:06:53.669Z,10.93
2018-04-25T07:09:21.230Z,11.90
2018-04-25T07:11:48.800Z,12.00
2018-04-25T07:14:16.420Z,11.67
2018-04-25T07:16:44.767Z,11.70
2018-04-25T07:19:12.394Z,11.57
2018-04-25T07:21:39.997Z,11.27
2018-04-25T07:24:07.573Z,11.47
2018-04-25T07:26:36.040Z,9.47
2018-04-25T07:29:05.149Z,9.83
2018-04-25T07:31:33.511Z,9.90
2018-04-25T07:34:01.330Z,9.57
2018-04-25T07:36:28.946Z,8.77
2018-04-25T07:38:58.314Z,8.20
2018-04-25T07:41:26.563Z,8.53
2018-04-25T07:43:54.173Z,8.73
2018-04-25T07:46:21.808Z,8.73
2018-04-25T07:48:49.398Z,8.60
2018-04-25T07:51:17.744Z,8.10
2018-04-25T07:53:45.522Z,7.57
2018-04-25T07:56:13.136Z,8.10
2018-04-25T07:58:40.752Z,8.07
2018-04-25T08:01:08.324Z,7.50
2018-04-25T08:03:35.932Z,8.23
2018-04-25T08:06:03.605Z,7.50
2018-04-25T08:08:31.900Z,7.50
2018-04-25T08:10:59.889Z,7.50
2018-04-25T08:13:40.193Z,7.47
2018-04-25T08:16:19.984Z,6.70
2018-04-25T08:18:59.395Z,6.53
2018-04-25T08:21:39.837Z,6.77
2018-04-25T08:24:07.420Z,6.37
2018-04-25T08:26:35.033Z,7.50
2018-04-25T08:29:02.640Z,6.73
2018-04-25T08:31:30.206Z,6.33
2018-04-25T08:33:57.786Z,5.73
2018-04-25T08:36:26.219Z,5.80
2018-04-25T08:38:53.797Z,5.87
2018-04-25T08:41:21.382Z,5.00
2018-04-25T08:43:49.017Z,4.30
2018-04-25T08:46:16.600Z,3.80
2018-04-25T08:48:44.424Z,3.37
2018-04-25T08:51:12.048Z,3.40
2018-04-25T08:53:40.402Z,2.87
2018-04-25T08:56:08.761Z,3.23
2018-04-25T08:58:36.375Z,2.83
2018-04-25T09:01:04.371Z,2.77
2018-04-25T09:03:31.950Z,2.83
2018-04-25T09:05:59.563Z,3.07
2018-04-25T09:08:27.970Z,2.53
2018-04-25T09:10:55.594Z,2.90
2018-04-25T09:13:23.984Z,2.53
2018-04-25T09:15:51.651Z,3.33
2018-04-25T09:18:19.241Z,3.07
2018-04-25T09:20:47.845Z,2.60
2018-04-25T09:23:15.418Z,2.60
2018-04-25T09:25:44.356Z,2.73
2018-04-25T09:28:11.957Z,2.27
2018-04-25T09:30:39.553Z,2.67
2018-04-25T09:33:07.137Z,2.87
2018-04-25T09:35:34.752Z,2.67
2018-04-25T09:38:03.305Z,2.50
2018-04-25T09:40:30.921Z,2.50
2018-04-25T09:42:58.516Z,2.70
2018-04-25T09:45:26.106Z,2.10
2018-04-25T09:47:53.705Z,2.70
2018-04-25T09:50:21.570Z,2.50
2018-04-25T09:52:49.154Z,2.20
2018-04-25T09:55:16.789Z,2.57
2018-04-25T09:57:44.504Z,2.33
2018-04-25T10:00:11.975Z,2.50
2018-04-25T10:02:40.357Z,2.57
2018-04-25T10:05:08.778Z,2.30
2018-04-25T10:07:36.380Z,2.30
2018-04-25T10:10:03.966Z,2.33
2018-04-25T10:12:32.335Z,2.50
2018-04-25T10:15:00.695Z,2.53
2018-04-25T10:17:29.797Z,2.97
2018-04-25T10:19:57.418Z,2.27
2018-04-25T10:22:25.293Z,2.83
2018-04-25T10:24:52.921Z,2.40
2018-04-25T10:27:20.504Z,2.50
2018-04-25T10:29:48.156Z,2.70
2018-04-25T10:32:15.730Z,2.60
2018-04-25T10:34:43.310Z,2.40
2018-04-25T10:37:12.075Z,2.60
2018-04-25T10:39:39.643Z,2.50
2018-04-25T10:42:07.326Z,2.57
2018-04-25T10:44:34.999Z,2.63
2018-04-25T10:47:03.366Z,2.30
2018-04-25T10:49:31.724Z,2.13
2018-04-25T10:51:59.330Z,2.30
2018-04-25T10:54:28.079Z,2.83
2018-04-25T10:56:55.693Z,2.73
2018-04-25T10:59:23.299Z,2.60
2018-04-25T11:01:50.882Z,2.70
2018-04-25T11:04:19.242Z,2.40
2018-04-25T11:06:46.866Z,2.40
2018-04-25T11:09:14.436Z,2.60
2018-04-25T11:11:42.000Z,2.20
2018-04-25T11:14:09.781Z,2.53
2018-04-25T11:16:37.373Z,2.40
2018-04-25T11:19:05.722Z,2.70
2018-04-25T11:21:33.346Z,2.60
2018-04-25T11:24:01.258Z,2.10
2018-04-25T11:26:29.631Z,2.23
2018-04-25T11:28:58.005Z,2.17
2018-04-25T11:31:26.385Z,2.10
2018-04-25T11:33:54.729Z,1.93
2018-04-25T11:36:22.507Z,1.97
2018-04-25T11:38:50.088Z,1.83
2018-04-25T11:41:18.600Z,2.27
2018-04-25T11:43:46.174Z,2.00
2018-04-25T11:46:13.745Z,1.90
2018-04-25T11:48:41.369Z,1.80
2018-04-25T11:51:08.931Z,2.10
2018-04-25T11:53:36.492Z,2.27
2018-04-25T11:56:04.106Z,1.90
2018-04-25T11:58:31.807Z,2.00
2018-04-25T12:00:59.383Z,1.70
2018-04-25T12:03:26.990Z,2.17
2018-04-25T12:05:54.629Z,2.30
2018-04-25T12:08:22.208Z,2.03
2018-04-25T12:10:49.854Z,2.10
2018-04-25T12:13:17.481Z,2.03
2018-04-25T12:15:45.003Z,2.10
2018-04-25T12:18:13.378Z,2.07
2018-04-25T12:20:41.757Z,1.77
2018-04-25T12:23:10.165Z,2.20
2018-04-25T12:25:37.732Z,1.63
2018-04-25T12:28:05.324Z,2.33
2018-04-25T12:30:32.954Z,1.83
2018-04-25T12:33:00.853Z,1.70
2018-04-25T12:35:28.450Z,2.30
2018-04-25T12:37:56.843Z,2.47
2018-04-25T12:40:24.424Z,2.23
2018-04-25T12:42:52.005Z,2.00
2018-04-25T12:45:19.625Z,1.90
2018-04-25T12:47:47.208Z,2.03
2018-04-25T12:50:14.830Z,2.27
2018-04-25T12:52:43.176Z,2.17
2018-04-25T12:55:10.785Z,2.60
2018-04-25T12:57:38.393Z,2.37
2018-04-25T13:00:05.939Z,2.30
2018-04-25T13:02:33.512Z,2.00
2018-04-25T13:05:01.094Z,2.70
2018-04-25T13:07:29.427Z,2.73
2018-04-25T13:09:57.062Z,2.03
2018-04-25T13:12:24.745Z,2.07
2018-04-25T13:14:52.331Z,2.40
2018-04-25T13:17:20.043Z,2.20
2018-04-25T13:19:47.663Z,2.43
2018-04-25T13:22:15.248Z,2.37
2018-04-25T13:24:43.587Z,2.20
2018-04-25T13:27:11.204Z,2.00
2018-04-25T13:29:38.777Z,2.33
2018-04-25T13:32:06.869Z,2.40
2018-04-25T13:34:34.567Z,2.33
2018-04-25T13:37:02.960Z,2.30
2018-04-25T13:39:30.571Z,2.40
2018-04-25T13:41:58.203Z,2.67
2018-04-25T13:44:26.125Z,2.50
2018-04-25T13:46:53.779Z,2.37
2018-04-25T13:49:21.519Z,2.20
2018-04-25T13:51:49.108Z,2.57
2018-04-25T13:54:17.464Z,2.60
2018-04-25T13:56:46.583Z,2.40
2018-04-25T13:59:14.942Z,2.40
2018-04-25T14:01:43.301Z,2.60
2018-04-25T14:04:10.859Z,2.60
2018-04-25T14:06:38.477Z,2.40
2018-04-25T14:09:06.032Z,2.60
2018-04-25T14:11:34.366Z,2.53
2018-04-25T14:14:02.719Z,2.00
2018-04-25T14:16:30.288Z,2.23
2018-04-25T14:18:57.992Z,2.60
2018-04-25T14:21:25.599Z,2.60
2018-04-25T14:23:53.165Z,2.70
2018-04-25T14:26:20.768Z,2.30
2018-04-25T14:28:48.333Z,2.40
2018-04-25T14:31:16.676Z,2.47
2018-04-25T14:33:44.270Z,2.03
2018-04-25T14:36:12.605Z,2.40
2018-04-25T14:38:40.197Z,2.63
2018-04-25T14:41:07.783Z,2.60
2018-04-25T14:43:35.358Z,2.30
2018-04-25T14:46:03.115Z,2.40
2018-04-25T14:48:30.744Z,2.60
2018-04-25T14:50:58.482Z,2.50
2018-04-25T14:53:26.050Z,2.37
2018-04-25T14:55:54.071Z,2.43
2018-04-25T14:58:21.762Z,2.50
2018-04-25T15:00:49.362Z,2.67
2018-04-25T15:03:17.751Z,2.10
2018-04-25T15:05:46.066Z,2.03
2018-04-25T15:08:13.615Z,2.47
2018-04-25T15:10:41.185Z,2.30
2018-04-25T15:13:08.856Z,2.30
2018-04-25T15:15:36.439Z,2.60
2018-04-25T15:18:04.069Z,2.37
2018-04-25T15:20:31.623Z,2.17
2018-04-25T15:22:59.260Z,2.27
2018-04-25T15:25:26.874Z,2.27
2018-04-25T15:27:54.408Z,2.57
2018-04-25T15:30:22.012Z,2.40
2018-04-25T15:32:50.336Z,2.47
2018-04-25T15:35:17.934Z,2.93
2018-04-25T15:37:47.014Z,2.00
2018-04-25T15:40:14.649Z,2.10
2018-04-25T15:42:42.343Z,2.03
2018-04-25T15:45:09.909Z,2.30
2018-04-25T15:47:37.451Z,2.47
2018-04-25T15:50:05.047Z,2.03
2018-04-25T15:52:33.389Z,2.53
2018-04-25T15:55:00.957Z,2.60
2018-04-25T15:57:28.554Z,2.60
2018-04-25T15:59:56.864Z,2.40
2018-04-25T16:02:24.491Z,2.67
2018-04-25T16:04:52.803Z,2.33
2018-04-25T16:07:20.370Z,2.67
2018-04-25T16:09:48.238Z,2.30
2018-04-25T16:12:16.067Z,2.87
2018-04-25T16:14:43.561Z,2.80
2018-04-25T16:17:11.212Z,2.73
2018-04-25T16:19:38.754Z,2.13
2018-04-25T16:22:06.311Z,2.40
2018-04-25T16:24:33.884Z,2.53
2018-04-25T16:27:01.518Z,3.00
2018-04-25T16:29:29.857Z,2.17
2018-04-25T16:31:57.897Z,2.63
2018-04-25T16:34:26.817Z,2.43
2018-04-25T16:36:54.412Z,2.50
2018-04-25T16:39:23.059Z,2.33
2018-04-25T16:41:50.789Z,2.27
2018-04-25T16:44:18.378Z,2.10
2018-04-25T16:46:46.116Z,2.30
2018-04-25T16:49:13.733Z,2.37
2018-04-25T16:51:42.064Z,2.30
2018-04-25T16:54:09.645Z,2.20
2018-04-25T16:56:37.246Z,2.63
2018-04-25T16:59:05.567Z,2.10
2018-04-25T17:01:33.166Z,2.43
2018-04-25T17:04:01.754Z,2.00
2018-04-25T17:06:30.150Z,2.10
2018-04-25T17:08:58.471Z,2.23
2018-04-25T17:11:26.080Z,2.23
2018-04-25T17:13:54.424Z,2.23
2018-04-25T17:16:22.788Z,2.50
2018-04-25T17:18:50.437Z,2.30
2018-04-25T17:21:17.994Z,2.23
2018-04-25T17:23:45.558Z,2.40
2018-04-25T17:26:13.183Z,2.30
2018-04-25T17:28:40.792Z,2.20
2018-04-25T17:31:08.332Z,2.47
2018-04-25T17:33:36.875Z,2.97
2018-04-25T17:36:04.466Z,2.40
2018-04-25T17:38:32.035Z,2.40
2018-04-25T17:40:59.618Z,2.67
2018-04-25T17:43:27.974Z,2.60
2018-04-25T17:45:55.656Z,2.23
2018-04-25T17:48:23.236Z,2.40
2018-04-25T17:50:51.616Z,3.00
2018-04-25T17:53:19.956Z,2.43
2018-04-25T17:55:47.538Z,2.53
2018-04-25T17:58:16.649Z,2.90
2018-04-25T18:00:44.228Z,2.70
2018-04-25T18:03:13.060Z,2.53
2018-04-25T18:05:40.767Z,2.60
2018-04-25T18:08:09.090Z,3.10
2018-04-25T18:10:37.136Z,2.80
2018-04-25T18:13:04.877Z,3.03
2018-04-25T18:15:33.205Z,3.30
2018-04-25T18:18:00.783Z,3.03
2018-04-25T18:20:28.383Z,2.90
2018-04-25T18:22:56.021Z,3.07
2018-04-25T18:25:24.365Z,3.07
2018-04-25T18:27:51.954Z,3.30
2018-04-25T18:30:19.599Z,3.30
2018-04-25T18:32:47.156Z,2.90
2018-04-25T18:35:15.503Z,3.07
2018-04-25T18:37:43.066Z,2.93
2018-04-25T18:40:10.661Z,2.90
2018-04-25T18:42:38.464Z,3.57
2018-04-25T18:45:06.029Z,3.10
2018-04-25T18:47:33.703Z,3.13
2018-04-25T18:50:01.295Z,3.03
2018-04-25T18:52:31.790Z,3.20
2018-04-25T18:54:59.366Z,2.70
2018-04-25T18:57:26.968Z,2.70
2018-04-25T18:59:55.307Z,2.67
2018-04-25T19:02:22.921Z,3.00
2018-04-25T19:04:51.287Z,2.80
2018-04-25T19:07:19.616Z,3.43
2018-04-25T19:09:47.368Z,3.03
2018-04-25T19:12:14.959Z,3.37
2018-04-25T19:14:42.589Z,3.30
2018-04-25T19:17:10.194Z,3.00
2018-04-25T19:19:37.976Z,3.37
2018-04-25T19:22:07.233Z,3.23
2018-04-25T19:24:34.872Z,3.40
2018-04-25T19:27:02.639Z,3.60
2018-04-25T19:29:30.218Z,3.67
2018-04-25T19:31:57.835Z,3.30
2018-04-25T19:34:26.375Z,3.50
2018-04-25T19:36:54.092Z,3.53
2018-04-25T19:39:21.682Z,4.33
2018-04-25T19:41:49.448Z,4.30
2018-04-25T19:44:17.041Z,4.20
2018-04-25T19:46:50.023Z,4.00
2018-04-25T19:49:19.357Z,3.70
2018-04-25T19:51:47.761Z,4.40
2018-04-25T19:54:16.189Z,4.43
2018-04-25T19:56:43.836Z,4.20
2018-04-25T19:59:11.414Z,4.33
2018-04-25T20:01:39.038Z,4.47
2018-04-25T20:04:06.623Z,4.80
2018-04-25T20:06:34.269Z,4.87
2018-04-25T20:09:01.903Z,5.17
2018-04-25T20:11:30.240Z,5.33
2018-04-25T20:13:57.936Z,5.77
2018-04-25T20:16:26.254Z,6.40
2018-04-25T20:18:53.819Z,5.03
2018-04-25T20:21:22.295Z,6.30
2018-04-25T20:23:49.938Z,5.70
2018-04-25T20:26:17.546Z,5.87
2018-04-25T20:28:45.165Z,6.13
2018-04-25T20:31:12.751Z,6.00
2018-04-25T20:33:40.363Z,5.63
2018-04-25T20:36:08.718Z,5.50
2018-04-25T20:38:36.322Z,5.63
2018-04-25T20:41:03.896Z,6.63
2018-04-25T20:43:31.501Z,6.17
2018-04-25T20:46:00.322Z,5.77
2018-04-25T20:48:27.961Z,5.50
2018-04-25T20:50:56.489Z,5.77
2018-04-25T20:53:24.151Z,5.60
2018-04-25T20:55:51.912Z,5.77
2018-04-25T20:58:19.584Z,5.37
2018-04-25T21:00:47.964Z,5.23
2018-04-25T21:03:15.618Z,4.93
2018-04-25T21:05:43.214Z,5.30
2018-04-25T21:08:10.793Z,4.83
2018-04-25T21:10:39.187Z,5.00
2018-04-25T21:13:06.845Z,4.30
2018-04-25T21:15:36.130Z,4.43
2018-04-25T21:18:04.688Z,4.90
2018-04-25T21:20:32.305Z,4.80
2018-04-25T21:22:59.910Z,4.90
2018-04-25T21:25:27.501Z,4.53
2018-04-25T21:27:55.112Z,4.97
2018-04-25T21:36:08.987Z,4.57
2018-04-25T21:38:36.586Z,4.70
2018-04-25T21:41:05.141Z,4.97
2018-04-25T21:43:33.294Z,4.70
2018-04-25T21:46:00.897Z,4.63
2018-04-25T21:48:29.287Z,4.80
2018-04-25T21:50:57.635Z,4.60
2018-04-25T21:53:25.675Z,4.57
2018-04-25T21:55:53.285Z,4.80
2018-04-25T21:58:21.637Z,4.87
2018-04-25T22:00:49.214Z,4.37
2018-04-25T22:03:16.795Z,4.70
2018-04-25T22:05:45.121Z,4.60
2018-04-25T22:08:12.770Z,5.17
2018-04-25T22:10:40.344Z,5.33
2018-04-25T22:13:07.954Z,5.13
2018-04-25T22:15:36.313Z,4.60
2018-04-25T22:18:04.710Z,4.40
2018-04-25T22:20:33.063Z,5.07
2018-04-25T22:23:00.707Z,5.53
2018-04-25T22:25:28.290Z,4.50
2018-04-25T22:27:56.683Z,4.67
2018-04-25T22:30:25.051Z,4.60
2018-04-25T22:32:53.382Z,4.70
2018-04-25T22:35:20.950Z,5.47
2018-04-25T22:37:48.556Z,4.93
2018-04-25T22:40:16.924Z,5.30
2018-04-25T22:42:45.323Z,5.30
2018-04-25T22:45:13.209Z,4.87
2018-04-25T22:47:40.850Z,5.27
2018-04-25T22:50:09.166Z,5.03
2018-04-25T22:52:36.727Z,4.87
2018-04-25T22:55:04.325Z,5.27
2018-04-25T22:57:32.819Z,5.27
2018-04-25T23:00:01.257Z,4.77
2018-04-25T23:02:28.816Z,4.87
2018-04-25T23:04:56.413Z,4.87
2018-04-25T23:07:24.766Z,4.70
2018-04-25T23:09:53.927Z,4.40
2018-04-25T23:12:21.691Z,4.27
2018-04-25T23:14:49.275Z,4.40
2018-04-25T23:17:17.532Z,4.20
2018-04-25T23:19:45.157Z,4.47
2018-04-25T23:22:14.209Z,4.17
2018-04-25T23:24:41.757Z,4.50
2018-04-25T23:27:09.408Z,4.47
2018-04-25T23:29:37.041Z,4.47
2018-04-25T23:32:05.538Z,4.10
2018-04-25T23:34:33.102Z,4.20
2018-04-25T23:37:00.768Z,4.17
2018-04-25T23:39:28.394Z,4.17
2018-04-25T23:41:55.989Z,4.47
2018-04-25T23:44:23.623Z,4.40
2018-04-25T23:46:51.205Z,4.53
2018-04-25T23:49:18.868Z,4.80
2018-04-25T23:51:46.477Z,4.40
2018-04-25T23:54:14.861Z,3.97
2018-04-25T23:56:43.260Z,4.50
2018-04-25T23:59:10.824Z,4.60
